Time;durP1;ratioP1;P1;durP2;ratioP2;P2;SDS_P1;SDS_P2;PMS_P1;PMS_P2;Temp;Humidity;BMP_temperature;BMP_pressure;BME280_temperature;BME280_humidity;BME280_pressure;Samples;Min_cycle;Max_cycle;Signal;HPM_P1;HPM_P2
2021/08/26 00:07:35;;;;;;;8.40;7.47;;;27.90;55.70;;;;;;5061732;28;20459;-41
2021/08/26 00:10:10;;;;;;;9.93;8.37;;;27.80;56.10;;;;;;5060971;28;20826;-41
2021/08/26 00:12:42;;;;;;;8.80;7.43;;;27.70;55.50;;;;;;5061417;28;20476;-46
2021/08/26 00:15:13;;;;;;;9.23;7.20;;;27.80;54.60;;;;;;5061942;28;20463;-42
2021/08/26 00:17:45;;;;;;;10.60;6.53;;;27.80;55.60;;;;;;5045561;28;20461;-45
2021/08/26 00:20:17;;;;;;;8.90;8.00;;;27.70;56.20;;;;;;5055754;28;20481;-40
2021/08/26 00:22:49;;;;;;;9.30;7.50;;;27.70;57.30;;;;;;5041498;28;20505;-41
2021/08/26 00:25:22;;;;;;;8.63;7.43;;;27.70;55.20;;;;;;5056394;28;20546;-41
2021/08/26 00:27:53;;;;;;;7.57;6.87;;;27.60;57.20;;;;;;5058520;28;20462;-41
2021/08/26 00:30:25;;;;;;;7.40;6.70;;;27.50;57.60;;;;;;5057821;28;20590;-44
2021/08/26 00:32:56;;;;;;;7.93;6.97;;;27.60;56.70;;;;;;5060913;28;20456;-45
2021/08/26 00:35:27;;;;;;;7.70;6.90;;;27.60;56.80;;;;;;5046196;28;20521;-48
2021/08/26 00:37:58;;;;;;;8.30;7.40;;;27.60;56.50;;;;;;5058152;28;20442;-41
2021/08/26 00:40:32;;;;;;;9.90;8.73;;;27.50;57.90;;;;;;5049422;28;20448;-46
2021/08/26 00:43:03;;;;;;;7.83;7.10;;;27.60;57.80;;;;;;5060819;28;20485;-43
2021/08/26 00:45:35;;;;;;;9.73;8.07;;;27.50;57.40;;;;;;5061518;28;20458;-41
2021/08/26 00:48:08;;;;;;;9.80;8.83;;;27.40;58.60;;;;;;5029566;28;20478;-45
2021/08/26 00:50:41;;;;;;;6.83;6.10;;;27.20;60.10;;;;;;5049570;28;20508;-44
2021/08/26 00:53:12;;;;;;;7.53;6.20;;;27.10;60.00;;;;;;5048821;28;20501;-44
2021/08/26 00:55:45;;;;;;;7.03;5.70;;;26.90;61.90;;;;;;5041674;28;20450;-45
2021/08/26 00:58:16;;;;;;;6.57;5.90;;;26.80;64.00;;;;;;5025711;28;20477;-46
2021/08/26 01:00:51;;;;;;;6.83;5.53;;;26.80;64.10;;;;;;5041532;28;20459;-42
2021/08/26 01:03:27;;;;;;;5.40;5.00;;;26.60;63.90;;;;;;5041721;28;20526;-43
2021/08/26 01:06:02;;;;;;;6.17;5.53;;;26.60;65.60;;;;;;5042604;28;20454;-40
2021/08/26 01:08:40;;;;;;;6.83;6.23;;;26.50;66.30;;;;;;5041230;28;20507;-44
2021/08/26 01:11:14;;;;;;;5.63;5.03;;;26.40;68.40;;;;;;5052436;28;20447;-42
2021/08/26 01:13:47;;;;;;;7.03;6.37;;;26.30;69.30;;;;;;5061208;28;20478;-42
2021/08/26 01:16:18;;;;;;;5.90;5.30;;;26.30;70.50;;;;;;5025419;28;20485;-43
2021/08/26 01:18:50;;;;;;;5.40;4.90;;;26.10;70.60;;;;;;5041585;28;20446;-40
2021/08/26 01:21:23;;;;;;;6.00;5.40;;;26.00;70.20;;;;;;5042268;28;20531;-44
2021/08/26 01:23:58;;;;;;;6.50;5.17;;;25.90;70.90;;;;;;5040862;28;20453;-42
2021/08/26 01:26:35;;;;;;;5.80;5.30;;;25.90;71.20;;;;;;5046890;28;20493;-43
2021/08/26 01:29:08;;;;;;;5.87;5.03;;;25.70;71.60;;;;;;5058958;28;20428;-44
2021/08/26 01:31:41;;;;;;;6.37;5.47;;;25.70;72.00;;;;;;5045759;28;20459;-41
2021/08/26 01:34:14;;;;;;;4.93;4.43;;;25.60;72.70;;;;;;5029767;28;21352;-45
2021/08/26 01:36:45;;;;;;;6.00;5.00;;;25.40;71.60;;;;;;5059594;28;20484;-41
2021/08/26 01:39:17;;;;;;;5.43;4.80;;;25.30;72.10;;;;;;5044500;28;20464;-42
2021/08/26 01:41:51;;;;;;;6.07;5.47;;;25.30;71.10;;;;;;5060683;28;20449;-44
2021/08/26 01:44:24;;;;;;;5.50;5.10;;;25.20;71.80;;;;;;5060863;28;20505;-47
2021/08/26 01:46:56;;;;;;;5.20;4.70;;;25.00;70.80;;;;;;5060999;28;20452;-39
2021/08/26 01:49:27;;;;;;;5.10;4.70;;;24.90;71.30;;;;;;5047996;28;20428;-44
2021/08/26 01:51:59;;;;;;;4.87;4.40;;;24.80;72.10;;;;;;5045464;28;20446;-47
2021/08/26 01:54:30;;;;;;;5.87;4.80;;;24.70;72.40;;;;;;5040414;28;20454;-44
2021/08/26 01:57:02;;;;;;;5.80;5.20;;;24.60;72.40;;;;;;5040990;28;20488;-42
2021/08/26 01:59:34;;;;;;;5.87;5.27;;;24.50;72.80;;;;;;5040969;28;20565;-43
2021/08/26 02:02:05;;;;;;;6.90;6.30;;;24.40;73.50;;;;;;5044996;28;20833;-45
2021/08/26 02:04:37;;;;;;;7.60;6.77;;;24.40;73.80;;;;;;5060435;28;20452;-40
2021/08/26 02:07:08;;;;;;;8.87;7.33;;;24.40;74.20;;;;;;5055559;28;20435;-41
2021/08/26 02:09:40;;;;;;;7.00;6.30;;;24.20;75.00;;;;;;5040311;28;20420;-41
2021/08/26 02:12:13;;;;;;;6.73;4.80;;;24.10;75.70;;;;;;5040858;28;20471;-40
2021/08/26 02:14:44;;;;;;;4.83;4.40;;;24.00;75.90;;;;;;5040470;28;20576;-40
2021/08/26 02:17:15;;;;;;;8.10;5.03;;;23.80;76.50;;;;;;5046474;28;20451;-44
2021/08/26 02:19:46;;;;;;;5.30;4.80;;;23.70;77.00;;;;;;5059287;28;20561;-47
2021/08/26 02:22:18;;;;;;;5.57;4.30;;;23.50;77.30;;;;;;5047650;28;20446;-43
2021/08/26 02:24:49;;;;;;;5.00;3.80;;;23.40;77.40;;;;;;5039410;28;20962;-41
2021/08/26 02:27:22;;;;;;;5.07;3.90;;;23.30;77.60;;;;;;5030207;28;20449;-40
2021/08/26 02:29:53;;;;;;;4.20;3.80;;;23.20;78.00;;;;;;5047712;28;20448;-46
2021/08/26 02:32:29;;;;;;;5.10;3.97;;;23.00;77.60;;;;;;5059833;28;20793;-45
2021/08/26 02:35:00;;;;;;;5.03;4.40;;;22.90;78.30;;;;;;5059056;28;20450;-43
2021/08/26 02:37:31;;;;;;;4.70;3.97;;;22.80;78.60;;;;;;5026011;28;20478;-41
2021/08/26 02:40:02;;;;;;;4.50;4.10;;;22.80;78.90;;;;;;5040162;28;20450;-39
2021/08/26 02:42:35;;;;;;;4.97;4.13;;;22.70;79.20;;;;;;5053504;28;20445;-40
2021/08/26 02:45:07;;;;;;;4.17;3.83;;;22.60;79.40;;;;;;5043995;28;20461;-41
2021/08/26 02:47:38;;;;;;;4.77;4.20;;;22.50;79.30;;;;;;5051553;28;20481;-40
2021/08/26 02:50:10;;;;;;;4.37;3.97;;;22.40;80.00;;;;;;5040613;28;20493;-41
2021/08/26 02:52:41;;;;;;;6.63;4.50;;;22.30;80.20;;;;;;5038724;28;20475;-40
2021/08/26 02:55:13;;;;;;;7.03;3.83;;;22.20;81.00;;;;;;5039504;28;20423;-42
2021/08/26 02:57:46;;;;;;;5.10;3.63;;;22.10;80.60;;;;;;5039398;28;20466;-43
2021/08/26 03:00:17;;;;;;;4.60;4.07;;;22.00;80.70;;;;;;5056085;28;20576;-41
2021/08/26 03:02:49;;;;;;;4.10;3.70;;;21.90;81.20;;;;;;5059008;28;20457;-43
2021/08/26 03:05:20;;;;;;;5.03;3.60;;;21.80;80.80;;;;;;5056901;28;20487;-44
2021/08/26 03:07:51;;;;;;;4.20;3.57;;;21.70;81.00;;;;;;5058520;28;20468;-43
2021/08/26 03:10:23;;;;;;;4.20;3.80;;;21.60;81.50;;;;;;5059354;28;20468;-44
2021/08/26 03:12:55;;;;;;;4.10;3.70;;;21.50;81.40;;;;;;5058886;28;20483;-42
2021/08/26 03:15:27;;;;;;;3.67;3.37;;;21.40;81.30;;;;;;5041134;28;20457;-41
2021/08/26 03:17:58;;;;;;;3.83;3.37;;;21.30;81.70;;;;;;5044592;28;20460;-40
2021/08/26 03:20:29;;;;;;;3.60;3.37;;;21.30;81.70;;;;;;5059041;28;20497;-44
2021/08/26 03:23:01;;;;;;;5.43;3.43;;;21.20;82.10;;;;;;5041083;28;20432;-40
2021/08/26 03:25:32;;;;;;;3.60;3.30;;;21.20;81.90;;;;;;5038436;28;20420;-40
2021/08/26 03:28:05;;;;;;;4.70;3.73;;;21.10;81.80;;;;;;5028277;28;20431;-40
2021/08/26 03:30:36;;;;;;;3.23;2.60;;;21.10;81.80;;;;;;5047832;28;20450;-40
2021/08/26 03:33:07;;;;;;;3.57;3.13;;;21.10;81.10;;;;;;5040440;28;20487;-39
2021/08/26 03:35:39;;;;;;;3.57;3.23;;;21.00;81.80;;;;;;5039235;28;20449;-40
2021/08/26 03:38:10;;;;;;;3.93;3.63;;;20.90;82.10;;;;;;5038722;28;20485;-43
2021/08/26 03:40:41;;;;;;;3.90;3.30;;;20.90;82.10;;;;;;5053289;28;20485;-40
2021/08/26 03:43:14;;;;;;;3.73;3.20;;;20.90;82.00;;;;;;5057690;28;20474;-43
2021/08/26 03:45:45;;;;;;;4.07;3.20;;;20.80;81.60;;;;;;5044433;28;20921;-43
2021/08/26 03:48:16;;;;;;;4.40;3.33;;;20.70;80.90;;;;;;5055810;28;20427;-41
2021/08/26 03:50:47;;;;;;;3.97;2.60;;;20.70;80.60;;;;;;5047012;28;20453;-39
2021/08/26 03:53:18;;;;;;;5.60;2.43;;;20.60;80.10;;;;;;5057764;28;20448;-41
2021/08/26 03:55:49;;;;;;;2.30;2.03;;;20.40;80.90;;;;;;5058530;28;20483;-41
2021/08/26 03:58:22;;;;;;;4.23;2.67;;;20.40;80.70;;;;;;5048037;28;20503;-40
2021/08/26 04:00:54;;;;;;;3.40;2.73;;;20.30;80.70;;;;;;5053625;28;20762;-39
2021/08/26 04:03:25;;;;;;;2.87;2.53;;;20.40;81.10;;;;;;5060841;28;20500;-40
2021/08/26 04:05:56;;;;;;;2.70;2.50;;;20.30;80.90;;;;;;5061760;28;20444;-41
2021/08/26 04:08:28;;;;;;;3.10;2.80;;;20.30;81.30;;;;;;5061589;28;20528;-42
2021/08/26 04:10:59;;;;;;;2.60;2.40;;;20.30;81.40;;;;;;5047290;28;20915;-40
2021/08/26 04:13:31;;;;;;;2.57;2.37;;;20.20;81.50;;;;;;5045276;28;20449;-41
2021/08/26 04:16:03;;;;;;;3.03;2.50;;;20.20;81.80;;;;;;5053860;28;20454;-42
2021/08/26 04:18:34;;;;;;;5.70;2.90;;;20.10;82.20;;;;;;5053155;28;20466;-42
2021/08/26 04:21:24;;;;;;;3.50;2.33;;;20.10;82.60;;;;;;5061668;28;20488;-43
2021/08/26 04:23:55;;;;;;;2.90;2.60;;;20.10;83.10;;;;;;5052691;28;20598;-41
2021/08/26 04:26:26;;;;;;;3.80;2.63;;;20.00;83.60;;;;;;5043433;28;20450;-42
2021/08/26 04:28:59;;;;;;;2.90;2.70;;;20.00;83.70;;;;;;5042270;28;20476;-40
2021/08/26 04:31:30;;;;;;;3.50;2.90;;;20.00;84.10;;;;;;5046821;28;20459;-39
2021/08/26 04:34:02;;;;;;;3.50;2.70;;;19.80;84.90;;;;;;5061536;28;20453;-40
2021/08/26 04:36:33;;;;;;;3.10;2.77;;;19.80;85.40;;;;;;5051168;28;20468;-40
2021/08/26 04:39:04;;;;;;;3.83;2.67;;;19.80;86.20;;;;;;5054955;28;20492;-40
2021/08/26 04:41:36;;;;;;;3.03;2.60;;;19.70;86.40;;;;;;5042908;28;20457;-43
2021/08/26 04:44:09;;;;;;;3.93;3.10;;;19.70;87.40;;;;;;5042053;28;20916;-40
2021/08/26 04:46:41;;;;;;;3.03;2.83;;;19.60;88.20;;;;;;5041649;28;20453;-40
2021/08/26 04:49:12;;;;;;;3.37;3.07;;;19.60;88.50;;;;;;5037369;28;20485;-41
2021/08/26 04:51:43;;;;;;;3.03;2.70;;;19.60;89.20;;;;;;5058882;28;20456;-40
2021/08/26 04:54:14;;;;;;;4.27;2.43;;;19.60;90.00;;;;;;5055068;28;20449;-40
2021/08/26 04:56:45;;;;;;;3.50;2.70;;;19.60;90.10;;;;;;5041019;28;20903;-46
2021/08/26 04:59:18;;;;;;;3.30;3.00;;;19.50;90.40;;;;;;5056065;28;20969;-39
2021/08/26 05:01:50;;;;;;;2.87;2.63;;;19.40;90.80;;;;;;5057119;28;20450;-40
2021/08/26 05:04:23;;;;;;;3.90;2.60;;;19.40;91.10;;;;;;5041483;28;20520;-44
2021/08/26 05:06:54;;;;;;;3.10;2.80;;;19.40;91.30;;;;;;5041222;28;20514;-41
2021/08/26 05:09:26;;;;;;;2.80;2.50;;;19.30;91.80;;;;;;5056885;28;20512;-42
2021/08/26 05:11:58;;;;;;;3.10;2.80;;;19.20;92.40;;;;;;5025787;28;20444;-40
2021/08/26 05:14:31;;;;;;;4.00;3.60;;;19.30;92.70;;;;;;5040725;28;20477;-40
2021/08/26 05:17:02;;;;;;;2.60;2.40;;;19.30;92.90;;;;;;5041256;28;20947;-39
2021/08/26 05:19:33;;;;;;;3.20;2.43;;;19.20;93.30;;;;;;5042346;28;20538;-41
2021/08/26 05:22:05;;;;;;;3.93;2.80;;;19.20;93.70;;;;;;5041199;28;20485;-44
2021/08/26 05:24:36;;;;;;;3.60;3.30;;;19.20;93.80;;;;;;5043077;28;20449;-49
2021/08/26 05:27:07;;;;;;;4.07;2.90;;;19.20;94.40;;;;;;5044992;28;20481;-47
2021/08/26 05:29:40;;;;;;;5.33;3.20;;;19.20;94.80;;;;;;5053156;28;20478;-43
2021/08/26 05:32:11;;;;;;;4.27;2.80;;;19.20;95.00;;;;;;5047990;28;20436;-45
2021/08/26 05:34:43;;;;;;;3.50;3.20;;;19.10;95.40;;;;;;5041034;28;20465;-42
2021/08/26 05:37:14;;;;;;;3.17;2.83;;;19.10;96.00;;;;;;5040858;28;20439;-42
2021/08/26 05:39:45;;;;;;;3.60;3.23;;;19.10;96.90;;;;;;5050002;28;20488;-40
2021/08/26 05:42:16;;;;;;;4.57;2.93;;;19.00;97.20;;;;;;5046857;28;20926;-41
2021/08/26 05:44:49;;;;;;;3.63;3.30;;;19.00;97.50;;;;;;5041805;28;20454;-42
2021/08/26 05:47:20;;;;;;;2.97;2.77;;;19.10;97.60;;;;;;5060208;28;20520;-43
2021/08/26 05:49:52;;;;;;;2.93;2.57;;;19.10;98.10;;;;;;5055487;28;20448;-46
2021/08/26 05:52:23;;;;;;;3.37;3.07;;;19.00;98.20;;;;;;5060511;28;20501;-42
2021/08/26 05:54:54;;;;;;;2.73;2.53;;;19.10;98.70;;;;;;5042439;28;20449;-45
2021/08/26 05:57:25;;;;;;;3.13;2.83;;;19.00;99.20;;;;;;5060275;28;20504;-44
2021/08/26 05:59:58;;;;;;;3.40;2.70;;;19.00;99.10;;;;;;5053342;28;20549;-40
2021/08/26 06:02:29;;;;;;;3.10;2.90;;;19.00;99.40;;;;;;5040551;28;20454;-45
2021/08/26 06:05:00;;;;;;;3.63;3.33;;;19.00;99.90;;;;;;5040649;28;20416;-50
2021/08/26 06:07:31;;;;;;;3.13;2.80;;;19.00;99.90;;;;;;5040560;28;21086;-49
2021/08/26 06:10:02;;;;;;;3.67;2.60;;;19.00;99.90;;;;;;5050610;28;20899;-43
2021/08/26 06:12:33;;;;;;;3.00;2.70;;;19.00;99.90;;;;;;5059858;28;20426;-41
2021/08/26 06:15:07;;;;;;;3.03;2.73;;;19.00;99.90;;;;;;5059870;28;20497;-45
2021/08/26 06:17:39;;;;;;;3.33;3.13;;;19.10;99.90;;;;;;5059605;28;20427;-43
2021/08/26 06:20:14;;;;;;;4.37;3.73;;;19.00;99.90;;;;;;5049657;28;20497;-43
2021/08/26 06:22:46;;;;;;;3.47;3.17;;;19.00;99.90;;;;;;5054038;28;20456;-42
2021/08/26 06:25:17;;;;;;;3.30;3.00;;;19.00;99.90;;;;;;5055586;28;20468;-43
2021/08/26 06:27:48;;;;;;;3.80;2.80;;;18.90;99.90;;;;;;5027859;28;20454;-44
2021/08/26 06:30:23;;;;;;;3.90;3.60;;;19.00;99.90;;;;;;5041800;28;20461;-41
2021/08/26 06:32:54;;;;;;;3.90;3.30;;;19.00;99.90;;;;;;5039977;28;20499;-42
2021/08/26 06:35:25;;;;;;;4.03;3.47;;;19.00;99.90;;;;;;5059309;28;20423;-43
2021/08/26 06:37:56;;;;;;;3.47;3.17;;;18.90;99.90;;;;;;5051814;28;20549;-46
2021/08/26 06:40:27;;;;;;;3.90;3.20;;;18.90;99.90;;;;;;5039993;28;20488;-46
2021/08/26 06:42:58;;;;;;;3.27;2.80;;;18.90;99.90;;;;;;5039788;28;20417;-44
2021/08/26 06:45:31;;;;;;;3.13;2.90;;;18.90;99.90;;;;;;5059463;28;20480;-41
2021/08/26 06:48:02;;;;;;;4.73;3.37;;;18.90;99.90;;;;;;5050470;28;20613;-40
2021/08/26 06:50:33;;;;;;;3.30;3.10;;;18.90;99.90;;;;;;5053613;28;20449;-41
2021/08/26 06:53:04;;;;;;;3.23;2.93;;;18.90;99.90;;;;;;5045562;28;20987;-41
2021/08/26 06:55:36;;;;;;;3.07;2.77;;;18.90;99.90;;;;;;5040078;28;20760;-44
2021/08/26 06:58:07;;;;;;;2.70;2.50;;;18.90;99.90;;;;;;5039526;28;20416;-41
2021/08/26 07:00:39;;;;;;;4.03;2.80;;;18.90;99.90;;;;;;5039665;28;20460;-40
2021/08/26 07:03:11;;;;;;;3.00;2.70;;;18.80;99.90;;;;;;5039661;28;20454;-41
2021/08/26 07:05:42;;;;;;;4.13;3.10;;;18.70;99.90;;;;;;5044218;28;20453;-44
2021/08/26 07:08:13;;;;;;;3.00;2.23;;;18.70;99.90;;;;;;5049892;28;20439;-40
2021/08/26 07:10:44;;;;;;;3.17;2.87;;;18.70;99.90;;;;;;5039890;28;20898;-46
2021/08/26 07:13:15;;;;;;;3.47;3.17;;;18.80;99.90;;;;;;5055970;28;20448;-43
2021/08/26 07:15:48;;;;;;;4.03;2.77;;;18.90;99.90;;;;;;5059356;28;20455;-43
2021/08/26 07:18:24;;;;;;;4.00;3.33;;;18.80;99.90;;;;;;5058997;28;20512;-46
2021/08/26 07:20:55;;;;;;;4.37;3.10;;;18.80;99.90;;;;;;5045454;28;20532;-40
2021/08/26 07:23:33;;;;;;;2.73;2.53;;;18.80;99.90;;;;;;5038990;28;20428;-44
2021/08/26 07:26:04;;;;;;;2.93;2.73;;;18.80;99.90;;;;;;5040038;28;20481;-41
2021/08/26 07:28:35;;;;;;;3.93;2.57;;;18.80;99.90;;;;;;5039570;28;20425;-40
2021/08/26 07:31:08;;;;;;;3.47;3.17;;;18.80;99.90;;;;;;5057239;28;20456;-41
2021/08/26 07:33:40;;;;;;;3.43;2.87;;;18.70;99.90;;;;;;5057408;28;20498;-40
2021/08/26 07:36:11;;;;;;;5.80;2.87;;;18.60;99.90;;;;;;5049849;28;20593;-42
2021/08/26 07:38:42;;;;;;;2.77;2.57;;;18.60;99.90;;;;;;5042023;28;20445;-46
2021/08/26 07:41:13;;;;;;;3.20;2.90;;;18.70;99.90;;;;;;5042737;28;20455;-44
2021/08/26 07:43:44;;;;;;;3.53;3.00;;;18.70;99.90;;;;;;5048299;28;20489;-41
2021/08/26 07:46:17;;;;;;;3.17;2.87;;;18.70;99.90;;;;;;5062607;28;20481;-47
2021/08/26 07:48:48;;;;;;;4.73;3.07;;;18.80;99.90;;;;;;5047559;28;20489;-41
2021/08/26 07:51:19;;;;;;;3.40;2.70;;;18.70;99.90;;;;;;5059763;28;21094;-44
2021/08/26 07:53:50;;;;;;;3.20;2.60;;;18.60;99.90;;;;;;5042528;28;20502;-43
2021/08/26 07:56:21;;;;;;;3.43;2.50;;;18.50;99.90;;;;;;5042472;28;20464;-47
2021/08/26 07:58:53;;;;;;;2.93;2.63;;;18.40;99.90;;;;;;5042906;28;20490;-40
2021/08/26 08:01:25;;;;;;;4.50;3.30;;;18.20;99.90;;;;;;5044061;28;20914;-46
2021/08/26 08:03:57;;;;;;;3.17;2.87;;;18.10;99.90;;;;;;5062023;28;20517;-44
2021/08/26 08:06:28;;;;;;;3.90;2.63;;;18.10;99.90;;;;;;5052545;28;20449;-48
2021/08/26 08:08:59;;;;;;;4.90;3.57;;;18.10;99.90;;;;;;5041494;28;20470;-43
2021/08/26 08:11:30;;;;;;;4.23;3.10;;;18.00;99.90;;;;;;5043872;28;20453;-41
2021/08/26 08:14:04;;;;;;;3.20;2.90;;;18.00;99.90;;;;;;5062271;28;20445;-43
2021/08/26 08:16:37;;;;;;;3.13;2.60;;;17.80;99.90;;;;;;5051459;28;20557;-42
2021/08/26 08:19:08;;;;;;;3.80;3.40;;;17.80;99.90;;;;;;5042105;28;20522;-41
2021/08/26 08:21:39;;;;;;;3.13;2.73;;;17.80;99.90;;;;;;5042197;28;20497;-41
2021/08/26 08:24:10;;;;;;;4.23;3.30;;;17.90;99.90;;;;;;5041932;28;20432;-47
2021/08/26 08:26:41;;;;;;;3.13;2.83;;;17.90;99.90;;;;;;5031927;28;20511;-46
2021/08/26 08:29:13;;;;;;;4.33;3.23;;;17.90;99.90;;;;;;5037072;28;20446;-41
2021/08/26 08:31:45;;;;;;;3.90;3.50;;;17.90;99.90;;;;;;5042940;28;20453;-44
2021/08/26 08:34:20;;;;;;;3.10;2.80;;;18.00;99.90;;;;;;5041958;28;20535;-42
2021/08/26 08:36:51;;;;;;;3.47;2.97;;;17.90;99.90;;;;;;5042173;28;20552;-44
2021/08/26 08:39:22;;;;;;;3.20;2.90;;;17.90;99.90;;;;;;5041078;28;20512;-41
2021/08/26 08:41:53;;;;;;;3.23;2.50;;;17.80;99.90;;;;;;5041446;28;20452;-45
2021/08/26 08:44:24;;;;;;;3.57;3.23;;;17.80;99.90;;;;;;5043043;28;20442;-43
2021/08/26 08:46:58;;;;;;;5.00;3.13;;;17.70;99.90;;;;;;5041973;28;20489;-43
2021/08/26 08:49:29;;;;;;;3.60;3.30;;;17.70;99.90;;;;;;5040093;28;20833;-41
2021/08/26 08:52:00;;;;;;;2.80;2.60;;;17.70;99.90;;;;;;5042056;28;20462;-41
2021/08/26 08:54:32;;;;;;;3.30;3.00;;;17.70;99.90;;;;;;5047317;28;20448;-43
2021/08/26 08:57:04;;;;;;;3.30;3.00;;;17.60;99.90;;;;;;5060820;28;20474;-44
2021/08/26 08:59:36;;;;;;;4.07;3.10;;;17.60;99.90;;;;;;5055323;28;20450;-42
2021/08/26 09:02:09;;;;;;;4.07;3.37;;;17.60;99.90;;;;;;5025055;28;20588;-45
2021/08/26 09:04:56;;;;;;;3.30;3.00;;;17.60;99.90;;;;;;5048999;28;20464;-39
2021/08/26 09:07:29;;;;;;;5.33;3.13;;;17.50;99.90;;;;;;5060977;28;20509;-44
2021/08/26 09:10:00;;;;;;;4.40;3.80;;;17.50;99.90;;;;;;5060295;28;20526;-41
2021/08/26 09:12:52;;;;;;;3.10;2.80;;;17.40;99.90;;;;;;5061086;28;20929;-43
2021/08/26 09:15:29;;;;;;;4.00;3.60;;;17.40;99.90;;;;;;5061164;28;20435;-40
2021/08/26 09:18:16;;;;;;;4.10;3.70;;;17.30;99.90;;;;;;5043771;28;20450;-40
2021/08/26 09:20:53;;;;;;;3.80;3.50;;;17.40;99.90;;;;;;5060714;28;20569;-43
2021/08/26 09:23:26;;;;;;;3.23;3.00;;;17.40;99.90;;;;;;5060449;28;20448;-47
2021/08/26 09:26:16;;;;;;;3.00;2.70;;;17.40;99.90;;;;;;5055210;28;20453;-43
2021/08/26 09:28:48;;;;;;;3.33;3.00;;;17.50;99.90;;;;;;5033919;28;20449;-42
2021/08/26 09:31:20;;;;;;;3.43;3.13;;;17.50;99.90;;;;;;5047396;28;20457;-42
2021/08/26 09:33:57;;;;;;;3.63;3.10;;;17.50;99.90;;;;;;5060769;28;20478;-40
2021/08/26 09:36:30;;;;;;;2.93;2.70;;;17.50;99.90;;;;;;5025331;28;20885;-40
2021/08/26 09:39:02;;;;;;;3.33;3.00;;;17.50;99.90;;;;;;5040624;28;20445;-45
2021/08/26 09:41:50;;;;;;;3.50;2.90;;;17.60;99.90;;;;;;5040765;28;20545;-46
2021/08/26 09:44:25;;;;;;;4.60;3.27;;;17.60;99.90;;;;;;5057520;28;20792;-42
2021/08/26 09:46:58;;;;;;;2.70;2.47;;;17.60;99.90;;;;;;5040900;28;20445;-45
2021/08/26 09:49:32;;;;;;;4.10;3.37;;;17.60;99.90;;;;;;5040727;28;20464;-43
2021/08/26 09:52:08;;;;;;;3.40;3.10;;;17.50;99.90;;;;;;5056252;28;20464;-44
2021/08/26 09:54:41;;;;;;;4.43;2.60;;;17.50;99.90;;;;;;5028027;28;20436;-43
2021/08/26 09:57:24;;;;;;;3.80;3.00;;;17.40;99.90;;;;;;5060355;28;20422;-43
2021/08/26 09:59:56;;;;;;;3.03;2.73;;;17.40;99.90;;;;;;5059663;28;20456;-44
2021/08/26 10:02:29;;;;;;;4.03;3.10;;;17.30;99.90;;;;;;5044130;28;20534;-41
2021/08/26 10:05:02;;;;;;;3.57;3.27;;;17.30;99.90;;;;;;5060174;28;20452;-41
2021/08/26 10:07:33;;;;;;;3.33;3.03;;;17.40;99.90;;;;;;5060003;28;20560;-40
2021/08/26 10:10:09;;;;;;;3.63;3.10;;;17.40;99.90;;;;;;5060102;28;20452;-40
2021/08/26 10:12:41;;;;;;;3.10;2.80;;;17.40;99.90;;;;;;5059158;28;20512;-43
2021/08/26 10:15:12;;;;;;;3.07;2.67;;;17.40;99.90;;;;;;5059971;28;20517;-41
2021/08/26 10:17:44;;;;;;;2.70;2.50;;;17.40;99.90;;;;;;5058362;28;20456;-40
2021/08/26 10:20:18;;;;;;;3.27;2.97;;;17.40;99.90;;;;;;5059964;28;20488;-41
2021/08/26 10:22:50;;;;;;;3.40;3.10;;;17.40;99.90;;;;;;5028119;28;20548;-39
2021/08/26 10:25:22;;;;;;;3.60;3.30;;;17.40;99.90;;;;;;5052249;28;20460;-39
2021/08/26 10:27:54;;;;;;;3.23;2.80;;;17.40;99.90;;;;;;5046026;28;20448;-39
2021/08/26 10:30:34;;;;;;;3.13;2.87;;;17.40;99.90;;;;;;5049962;28;20466;-39
2021/08/26 10:33:09;;;;;;;3.37;3.07;;;17.30;99.90;;;;;;5051171;28;20818;-39
2021/08/26 10:36:07;;;;;;;5.00;3.30;;;17.30;99.90;;;;;;5059741;28;20448;-40
2021/08/26 10:38:39;;;;;;;3.23;2.67;;;17.30;99.90;;;;;;5058779;28;20448;-41
2021/08/26 10:41:30;;;;;;;3.50;2.80;;;17.30;99.90;;;;;;5052728;28;20482;-40
2021/08/26 10:44:13;;;;;;;2.67;2.47;;;17.30;99.90;;;;;;5054121;28;20827;-40
2021/08/26 10:46:52;;;;;;;2.70;2.50;;;17.30;99.90;;;;;;5041027;28;20438;-39
2021/08/26 10:49:24;;;;;;;4.30;3.33;;;17.20;99.90;;;;;;5040223;28;20513;-41
2021/08/26 10:51:57;;;;;;;3.43;3.13;;;17.20;99.90;;;;;;5052064;28;20855;-39
2021/08/26 10:54:31;;;;;;;4.20;2.77;;;17.10;99.90;;;;;;5058811;28;20477;-40
2021/08/26 10:57:30;;;;;;;2.77;2.57;;;17.10;99.90;;;;;;5023984;28;20456;-38
2021/08/26 11:00:22;;;;;;;2.90;2.60;;;17.10;99.90;;;;;;5054781;28;20930;-38
2021/08/26 11:02:53;;;;;;;3.67;3.13;;;17.00;99.90;;;;;;5026295;28;20494;-40
2021/08/26 11:05:35;;;;;;;5.93;3.20;;;17.10;99.90;;;;;;5040057;28;20504;-39
2021/08/26 11:08:29;;;;;;;3.23;2.93;;;17.10;99.90;;;;;;5035868;28;20458;-39
2021/08/26 11:11:16;;;;;;;3.27;2.97;;;17.10;99.90;;;;;;5058791;28;20441;-40
2021/08/26 11:13:48;;;;;;;4.73;2.70;;;16.90;99.90;;;;;;5062587;28;20527;-39
2021/08/26 11:16:38;;;;;;;3.43;3.13;;;16.90;99.90;;;;;;5062714;28;20445;-40
2021/08/26 11:19:30;;;;;;;4.20;3.37;;;17.00;99.90;;;;;;5055091;28;20475;-43
2021/08/26 11:22:08;;;;;;;3.20;2.90;;;17.00;99.90;;;;;;5057614;28;20490;-40
2021/08/26 11:24:58;;;;;;;3.40;3.10;;;16.90;99.90;;;;;;5028796;28;20453;-40
2021/08/26 11:27:33;;;;;;;3.87;3.17;;;17.00;99.90;;;;;;5039614;28;20492;-39
2021/08/26 11:30:34;;;;;;;3.97;3.30;;;17.10;99.90;;;;;;5051022;28;20438;-40
2021/08/26 11:33:05;;;;;;;2.90;2.60;;;17.00;99.90;;;;;;5078016;28;20452;-39
2021/08/26 11:35:36;;;;;;;3.60;3.07;;;17.10;99.90;;;;;;5076548;28;20451;-39
2021/08/26 11:38:07;;;;;;;2.93;2.63;;;17.10;99.90;;;;;;5082970;28;21090;-39
2021/08/26 11:40:40;;;;;;;3.43;3.13;;;17.10;99.90;;;;;;5083275;28;20508;-39
2021/08/26 11:43:15;;;;;;;3.20;2.90;;;17.00;99.90;;;;;;5082875;28;20482;-41
2021/08/26 11:45:46;;;;;;;3.03;2.83;;;17.00;99.90;;;;;;5083774;28;20443;-45
2021/08/26 11:48:18;;;;;;;3.43;3.13;;;17.00;99.90;;;;;;5067705;28;20447;-39
2021/08/26 11:50:49;;;;;;;4.90;3.90;;;17.10;99.90;;;;;;5063853;28;20444;-38
2021/08/26 11:53:20;;;;;;;3.80;3.40;;;17.10;99.90;;;;;;5062866;28;20478;-39
2021/08/26 11:55:52;;;;;;;3.00;2.70;;;17.10;99.90;;;;;;5082897;28;20451;-40
2021/08/26 11:58:24;;;;;;;3.60;3.37;;;17.00;99.90;;;;;;5047375;28;20452;-40
2021/08/26 12:00:55;;;;;;;3.53;3.07;;;17.00;99.90;;;;;;5080381;28;20444;-40
2021/08/26 12:03:27;;;;;;;3.53;3.13;;;17.00;99.90;;;;;;5083137;28;20490;-39
2021/08/26 12:05:59;;;;;;;4.27;3.43;;;17.00;99.90;;;;;;5078604;28;20489;-39
2021/08/26 12:08:30;;;;;;;3.50;3.20;;;17.00;99.90;;;;;;5062031;28;20452;-42
2021/08/26 12:11:03;;;;;;;4.67;3.90;;;16.90;99.90;;;;;;5035515;28;20473;-39
2021/08/26 12:13:35;;;;;;;4.17;3.80;;;16.90;99.90;;;;;;5050241;28;20467;-39
2021/08/26 12:16:06;;;;;;;4.63;3.60;;;16.80;99.90;;;;;;5062356;28;20474;-38
2021/08/26 12:18:37;;;;;;;3.57;3.27;;;16.60;99.90;;;;;;5061919;28;20481;-38
2021/08/26 12:21:10;;;;;;;4.90;3.47;;;16.50;99.90;;;;;;5057006;28;20519;-38
2021/08/26 12:23:48;;;;;;;5.03;3.73;;;16.50;99.90;;;;;;5041640;28;20489;-40
2021/08/26 12:26:22;;;;;;;3.97;3.03;;;16.40;99.90;;;;;;5034804;28;20466;-39
2021/08/26 12:28:59;;;;;;;4.13;3.40;;;16.40;99.90;;;;;;5058089;28;21162;-39
2021/08/26 12:31:31;;;;;;;3.80;3.50;;;16.40;99.90;;;;;;5057836;28;20748;-38
2021/08/26 12:34:05;;;;;;;4.53;3.30;;;16.40;99.90;;;;;;5061973;28;20448;-39
2021/08/26 12:36:37;;;;;;;3.40;3.10;;;16.40;99.90;;;;;;5061609;28;20467;-39
2021/08/26 12:39:23;;;;;;;3.73;3.40;;;16.30;99.90;;;;;;5027347;28;20982;-40
2021/08/26 12:42:10;;;;;;;4.13;3.23;;;16.30;99.90;;;;;;5051202;28;20448;-38
2021/08/26 12:44:41;;;;;;;7.23;3.60;;;16.40;99.90;;;;;;5061736;28;20452;-38
2021/08/26 12:47:13;;;;;;;3.90;3.50;;;16.30;99.90;;;;;;5042259;28;20446;-38
2021/08/26 12:49:45;;;;;;;5.80;3.00;;;16.30;99.90;;;;;;5048956;28;20444;-38
2021/08/26 12:52:17;;;;;;;4.37;3.30;;;16.20;99.90;;;;;;5061283;28;20433;-45
2021/08/26 12:54:59;;;;;;;3.43;3.10;;;16.30;99.90;;;;;;5060957;28;20452;-42
2021/08/26 12:57:34;;;;;;;3.43;3.07;;;16.30;99.90;;;;;;5027210;28;20445;-40
2021/08/26 13:00:07;;;;;;;6.20;3.33;;;16.30;99.90;;;;;;5043320;28;20507;-43
2021/08/26 13:02:53;;;;;;;4.50;3.20;;;16.20;99.90;;;;;;5041895;28;20477;-40
2021/08/26 13:05:25;;;;;;;3.67;3.37;;;16.20;99.90;;;;;;5026251;28;20498;-40
2021/08/26 13:08:00;;;;;;;3.83;3.20;;;16.20;99.90;;;;;;5041398;28;20453;-39
2021/08/26 13:10:35;;;;;;;3.63;2.90;;;16.30;99.90;;;;;;5055132;28;20468;-41
2021/08/26 13:13:15;;;;;;;5.90;3.27;;;16.20;99.90;;;;;;5060336;28;20448;-41
2021/08/26 13:15:47;;;;;;;3.67;3.10;;;16.20;99.90;;;;;;5054873;28;20453;-41
2021/08/26 13:18:18;;;;;;;3.37;2.50;;;16.20;99.90;;;;;;5041672;28;20460;-39
2021/08/26 13:20:50;;;;;;;3.93;2.73;;;16.30;99.90;;;;;;5041802;28;20538;-41
2021/08/26 13:23:23;;;;;;;5.70;3.43;;;16.30;99.90;;;;;;5042783;28;20488;-41
2021/08/26 13:25:55;;;;;;;5.07;3.67;;;16.40;99.90;;;;;;5051476;28;20511;-44